Time;durP1;ratioP1;P1;durP2;ratioP2;P2;SDS_P1;SDS_P2;PMS_P1;PMS_P2;Temp;Humidity;BMP_temperature;BMP_pressure;BME280_temperature;BME280_humidity;BME280_pressure;Samples;Min_cycle;Max_cycle;Signal;HPM_P1;HPM_P2
2022/05/23 00:00:26;;;;;;;8.00;3.00;;;;;;;;;;4986471;28;20122;-74
2022/05/23 00:02:52;;;;;;;7.07;2.80;;;;;;;;;;4986468;28;20118;-74
2022/05/23 00:05:18;;;;;;;7.20;2.67;;;;;;;;;;4970396;28;20580;-75
2022/05/23 00:07:46;;;;;;;7.63;2.75;;;;;;;;;;4986269;28;20112;-76
2022/05/23 00:10:13;;;;;;;5.35;2.85;;;;;;;;;;4985961;28;20528;-74
2022/05/23 00:12:40;;;;;;;6.15;2.90;;;;;;;;;;4986486;28;20035;-76
2022/05/23 00:15:08;;;;;;;6.00;3.13;;;;;;;;;;4954000;28;20064;-79
2022/05/23 00:17:35;;;;;;;10.20;3.10;;;;;;;;;;4986922;28;20406;-77
2022/05/23 00:20:02;;;;;;;6.40;2.97;;;;;;;;;;4985932;28;20589;-74
2022/05/23 00:22:28;;;;;;;5.28;2.80;;;;;;;;;;4970528;28;20050;-74
2022/05/23 00:24:54;;;;;;;5.90;2.90;;;;;;;;;;4985984;28;20082;-76
2022/05/23 00:27:22;;;;;;;4.45;2.95;;;;;;;;;;4986435;28;20059;-76
2022/05/23 00:29:48;;;;;;;7.35;2.83;;;;;;;;;;4971475;28;20081;-77
2022/05/23 00:35:18;;;;;;;7.32;3.20;;;;;;;;;;4969871;28;20130;-74
2022/05/23 00:37:44;;;;;;;6.60;3.00;;;;;;;;;;4986304;28;20441;-75
2022/05/23 00:40:22;;;;;;;5.93;2.97;;;;;;;;;;4986288;28;20486;-76
2022/05/23 00:45:34;;;;;;;5.97;2.88;;;;;;;;;;4970237;28;20059;-79
2022/05/23 00:48:01;;;;;;;9.70;2.95;;;;;;;;;;4985347;28;20055;-80
2022/05/23 00:50:28;;;;;;;12.20;3.05;;;;;;;;;;4986436;28;20118;-79
2022/05/23 00:52:58;;;;;;;9.52;3.10;;;;;;;;;;4954106;28;20042;-75
2022/05/23 00:55:29;;;;;;;5.57;2.70;;;;;;;;;;4986097;28;20031;-74
2022/05/23 00:57:57;;;;;;;8.90;3.22;;;;;;;;;;4986009;28;20042;-74
2022/05/23 01:00:23;;;;;;;5.53;2.95;;;;;;;;;;4985926;28;20051;-74
2022/05/23 01:02:52;;;;;;;6.45;2.95;;;;;;;;;;4985938;28;20046;-74
2022/05/23 01:05:19;;;;;;;9.80;2.83;;;;;;;;;;4970565;28;20051;-75
2022/05/23 01:07:45;;;;;;;6.28;2.83;;;;;;;;;;4985475;28;20061;-74
2022/05/23 01:10:11;;;;;;;7.97;3.05;;;;;;;;;;4985166;28;20039;-77
2022/05/23 01:12:39;;;;;;;9.00;2.92;;;;;;;;;;4970929;28;20091;-74
2022/05/23 01:15:15;;;;;;;7.60;2.90;;;;;;;;;;4985410;28;20085;-80
2022/05/23 01:17:41;;;;;;;7.30;3.00;;;;;;;;;;4985995;28;20089;-75
2022/05/23 01:20:08;;;;;;;6.45;2.85;;;;;;;;;;4970421;28;20047;-76
2022/05/23 01:22:40;;;;;;;5.45;2.80;;;;;;;;;;4953165;28;20049;-75
2022/05/23 01:25:19;;;;;;;5.95;3.55;;;;;;;;;;4984911;28;20126;-79
2022/05/23 01:27:48;;;;;;;6.90;2.70;;;;;;;;;;4953563;28;20039;-79
2022/05/23 01:30:15;;;;;;;5.45;2.85;;;;;;;;;;4985677;28;20054;-75
2022/05/23 01:32:42;;;;;;;9.55;3.60;;;;;;;;;;4970886;28;20043;-78
2022/05/23 01:35:09;;;;;;;4.53;2.80;;;;;;;;;;4969245;28;20521;-74
2022/05/23 01:37:35;;;;;;;5.90;2.80;;;;;;;;;;4969524;28;20039;-74
2022/05/23 01:40:01;;;;;;;6.72;3.80;;;;;;;;;;4952937;28;20101;-75
2022/05/23 01:42:27;;;;;;;6.65;2.70;;;;;;;;;;4985768;28;20506;-74
2022/05/23 01:44:53;;;;;;;5.28;2.80;;;;;;;;;;4987352;28;20065;-75
2022/05/23 01:47:21;;;;;;;6.15;3.08;;;;;;;;;;4988387;28;20053;-74
2022/05/23 01:49:47;;;;;;;6.25;3.10;;;;;;;;;;4988982;28;20078;-76
2022/05/23 01:52:13;;;;;;;9.82;3.10;;;;;;;;;;4973893;28;20054;-75
2022/05/23 01:54:40;;;;;;;5.55;3.08;;;;;;;;;;4972833;28;20039;-77
2022/05/23 01:57:07;;;;;;;6.60;2.95;;;;;;;;;;4988719;28;20039;-79
2022/05/23 02:02:18;;;;;;;6.15;3.20;;;;;;;;;;4974901;28;20953;-75
2022/05/23 02:04:45;;;;;;;6.65;2.83;;;;;;;;;;4972909;28;20082;-76
2022/05/23 02:07:12;;;;;;;7.03;2.80;;;;;;;;;;4983627;28;20137;-75
2022/05/23 02:09:38;;;;;;;4.97;2.80;;;;;;;;;;4985584;28;20543;-78
2022/05/23 02:12:06;;;;;;;4.70;2.67;;;;;;;;;;4984774;28;20185;-76
2022/05/23 02:14:32;;;;;;;5.82;2.80;;;;;;;;;;4984489;28;20051;-75
2022/05/23 02:16:58;;;;;;;4.60;2.50;;;;;;;;;;4953800;29;20244;-76
2022/05/23 02:19:24;;;;;;;5.20;2.72;;;;;;;;;;4953721;29;20043;-76
2022/05/23 02:21:50;;;;;;;4.10;2.58;;;;;;;;;;4985018;28;20367;-76
2022/05/23 02:24:16;;;;;;;6.95;2.75;;;;;;;;;;4984507;28;20394;-76
2022/05/23 02:26:43;;;;;;;7.72;2.85;;;;;;;;;;4990525;28;20043;-78
2022/05/23 02:29:10;;;;;;;6.28;3.08;;;;;;;;;;4971218;28;20042;-78
2022/05/23 02:31:37;;;;;;;5.13;2.83;;;;;;;;;;4973100;28;20082;-76
2022/05/23 02:34:03;;;;;;;4.72;2.63;;;;;;;;;;4972205;28;20486;-79
2022/05/23 02:36:29;;;;;;;5.53;3.00;;;;;;;;;;4987781;28;20050;-76
2022/05/23 02:38:56;;;;;;;6.38;2.70;;;;;;;;;;4988162;28;20137;-78
2022/05/23 02:41:22;;;;;;;6.72;2.53;;;;;;;;;;4972796;28;20035;-76
2022/05/23 02:43:49;;;;;;;4.63;2.95;;;;;;;;;;4972512;28;20134;-78
2022/05/23 02:46:15;;;;;;;5.03;2.53;;;;;;;;;;4987378;28;20610;-75
2022/05/23 02:48:41;;;;;;;5.75;2.95;;;;;;;;;;4987347;28;20081;-76
2022/05/23 02:51:08;;;;;;;5.40;2.70;;;;;;;;;;4971995;28;20046;-78
2022/05/23 02:53:34;;;;;;;5.68;2.83;;;;;;;;;;5003522;28;20046;-75
2022/05/23 02:56:00;;;;;;;6.28;2.80;;;;;;;;;;5002376;28;20043;-78
2022/05/23 02:58:26;;;;;;;6.22;2.90;;;;;;;;;;4987024;28;20066;-77
2022/05/23 03:00:52;;;;;;;7.00;2.90;;;;;;;;;;4987358;28;20039;-77
2022/05/23 03:03:18;;;;;;;5.68;2.92;;;;;;;;;;4971988;28;20042;-77
2022/05/23 03:05:44;;;;;;;3.92;2.42;;;;;;;;;;4972308;28;20133;-75
2022/05/23 03:08:11;;;;;;;6.30;2.90;;;;;;;;;;4986663;28;20411;-75
2022/05/23 03:10:38;;;;;;;6.97;2.97;;;;;;;;;;4954838;28;20042;-76
2022/05/23 03:13:04;;;;;;;5.68;2.97;;;;;;;;;;4971200;28;20088;-75
2022/05/23 03:15:31;;;;;;;5.25;2.70;;;;;;;;;;4986797;28;20046;-78
2022/05/23 03:17:57;;;;;;;7.18;2.72;;;;;;;;;;4972138;28;20387;-77
2022/05/23 03:20:23;;;;;;;6.43;3.35;;;;;;;;;;4986409;28;20051;-78
2022/05/23 03:28:22;;;;;;;7.82;3.30;;;;;;;;;;4969753;28;20047;-76
2022/05/23 03:30:48;;;;;;;5.00;2.80;;;;;;;;;;4955024;28;20081;-75
2022/05/23 03:33:15;;;;;;;6.70;3.10;;;;;;;;;;4986671;28;20104;-77
2022/05/23 03:35:42;;;;;;;5.43;3.13;;;;;;;;;;4939068;28;20434;-73
2022/05/23 03:38:09;;;;;;;4.72;2.80;;;;;;;;;;4953686;28;20083;-74
2022/05/23 03:40:36;;;;;;;5.55;2.97;;;;;;;;;;4971813;28;20494;-74
2022/05/23 03:43:02;;;;;;;6.13;3.20;;;;;;;;;;4986418;28;20466;-75
2022/05/23 03:45:29;;;;;;;6.05;3.30;;;;;;;;;;4987312;28;20057;-73
2022/05/23 03:47:56;;;;;;;5.15;2.90;;;;;;;;;;4972093;28;20503;-81
2022/05/23 03:50:22;;;;;;;7.57;3.25;;;;;;;;;;4985829;28;20053;-75
2022/05/23 03:52:49;;;;;;;7.43;3.20;;;;;;;;;;4986789;28;20109;-76
2022/05/23 03:55:15;;;;;;;9.73;3.00;;;;;;;;;;4970125;28;20043;-74
2022/05/23 03:57:41;;;;;;;4.88;2.90;;;;;;;;;;4986470;28;20043;-74
2022/05/23 04:00:08;;;;;;;7.20;3.20;;;;;;;;;;4953482;28;20051;-74
2022/05/23 04:02:34;;;;;;;5.18;3.35;;;;;;;;;;4969527;28;20046;-75
2022/05/23 04:05:00;;;;;;;5.80;2.92;;;;;;;;;;4971127;28;20406;-76
2022/05/23 04:07:27;;;;;;;8.18;3.13;;;;;;;;;;4981048;28;20059;-74
2022/05/23 04:09:54;;;;;;;5.90;2.92;;;;;;;;;;4952019;29;20046;-74
2022/05/23 04:12:20;;;;;;;7.63;2.90;;;;;;;;;;4982746;28;20047;-74
2022/05/23 04:14:46;;;;;;;4.65;2.70;;;;;;;;;;4982540;28;20047;-76
2022/05/23 04:17:12;;;;;;;7.85;3.33;;;;;;;;;;4981773;28;20130;-76
2022/05/23 04:19:38;;;;;;;5.57;2.95;;;;;;;;;;4951600;29;20045;-75
2022/05/23 04:22:04;;;;;;;8.45;2.90;;;;;;;;;;4950937;29;20043;-75
2022/05/23 04:24:31;;;;;;;5.80;2.65;;;;;;;;;;4982111;28;20043;-79
2022/05/23 04:26:57;;;;;;;7.05;2.72;;;;;;;;;;4982379;28;20050;-75
2022/05/23 04:29:24;;;;;;;5.28;2.70;;;;;;;;;;4981947;28;20078;-78
2022/05/23 04:31:50;;;;;;;5.72;2.65;;;;;;;;;;4982798;28;20443;-75
2022/05/23 04:37:01;;;;;;;6.55;3.00;;;;;;;;;;4966301;28;20432;-75
2022/05/23 04:39:28;;;;;;;3.67;2.30;;;;;;;;;;4981812;28;20043;-76
2022/05/23 04:41:55;;;;;;;8.07;2.85;;;;;;;;;;4951606;29;20395;-74
2022/05/23 04:44:21;;;;;;;4.10;2.40;;;;;;;;;;4982153;28;20522;-76
2022/05/23 04:49:41;;;;;;;5.90;2.83;;;;;;;;;;4966208;28;20563;-73
2022/05/23 04:52:11;;;;;;;4.78;2.67;;;;;;;;;;4981896;28;20118;-73
2022/05/23 04:54:38;;;;;;;5.68;2.70;;;;;;;;;;4981926;28;20049;-75
2022/05/23 04:57:04;;;;;;;5.72;2.85;;;;;;;;;;4981548;28;20089;-75
2022/05/23 04:59:30;;;;;;;5.40;2.83;;;;;;;;;;4981913;28;20047;-76
2022/05/23 05:01:56;;;;;;;6.60;2.78;;;;;;;;;;4950972;29;20074;-74
2022/05/23 05:04:22;;;;;;;5.28;2.35;;;;;;;;;;4993794;28;20034;-74
2022/05/23 05:06:48;;;;;;;6.15;3.00;;;;;;;;;;4984969;28;20065;-79
2022/05/23 05:09:14;;;;;;;5.18;2.65;;;;;;;;;;4984885;28;20078;-75
2022/05/23 05:11:41;;;;;;;6.57;2.60;;;;;;;;;;4985260;28;20043;-75
2022/05/23 05:14:07;;;;;;;4.55;2.60;;;;;;;;;;4984943;28;20054;-76
2022/05/23 05:16:33;;;;;;;4.85;2.90;;;;;;;;;;4969847;28;20451;-78
2022/05/23 05:18:59;;;;;;;7.28;2.90;;;;;;;;;;4953601;28;20094;-75
2022/05/23 05:21:26;;;;;;;9.10;3.20;;;;;;;;;;4956322;28;20090;-74
2022/05/23 05:23:52;;;;;;;4.32;3.00;;;;;;;;;;4956663;28;20051;-75
2022/05/23 05:26:18;;;;;;;10.25;3.25;;;;;;;;;;4973193;28;20042;-75
2022/05/23 05:28:44;;;;;;;8.60;3.15;;;;;;;;;;4974318;28;20042;-75
2022/05/23 05:31:30;;;;;;;6.70;3.40;;;;;;;;;;4988285;28;20170;-77
2022/05/23 05:33:56;;;;;;;;;;;;;;;;;;4973283;28;20239;-75
2022/05/23 05:36:25;;;;;;;4.82;2.88;;;;;;;;;;5004631;28;20008;-76
2022/05/23 05:38:54;;;;;;;4.85;3.20;;;;;;;;;;4988938;28;20502;-77
2022/05/23 05:41:25;;;;;;;7.97;3.20;;;;;;;;;;4972386;28;20038;-75
2022/05/23 05:44:03;;;;;;;5.45;2.83;;;;;;;;;;4956158;28;20057;-79
2022/05/23 05:46:31;;;;;;;5.38;3.10;;;;;;;;;;4987897;28;20050;-75
2022/05/23 05:48:58;;;;;;;6.93;3.15;;;;;;;;;;4956365;28;20513;-75
2022/05/23 05:51:25;;;;;;;6.10;3.05;;;;;;;;;;4987904;28;20046;-75
2022/05/23 05:53:51;;;;;;;5.63;3.00;;;;;;;;;;4972517;28;20057;-75
2022/05/23 05:56:18;;;;;;;9.25;3.03;;;;;;;;;;4988190;28;20487;-75
2022/05/23 05:58:45;;;;;;;5.70;2.70;;;;;;;;;;4988222;28;20067;-75
2022/05/23 06:01:11;;;;;;;6.05;2.92;;;;;;;;;;4973065;28;20066;-78
2022/05/23 06:03:37;;;;;;;5.75;3.00;;;;;;;;;;4987910;28;20118;-75
2022/05/23 06:11:41;;;;;;;6.60;2.97;;;;;;;;;;4971694;28;20046;-76
2022/05/23 06:14:07;;;;;;;4.22;2.90;;;;;;;;;;4972462;28;20070;-75
2022/05/23 06:16:34;;;;;;;5.63;2.83;;;;;;;;;;4971656;28;20482;-75
2022/05/23 06:19:00;;;;;;;6.15;3.13;;;;;;;;;;4972037;28;20082;-76
2022/05/23 06:21:27;;;;;;;7.18;3.25;;;;;;;;;;4971137;28;20039;-76
2022/05/23 06:23:54;;;;;;;5.63;3.30;;;;;;;;;;4971752;28;20042;-76
2022/05/23 06:26:22;;;;;;;6.85;3.42;;;;;;;;;;4971063;28;20125;-78
2022/05/23 06:28:49;;;;;;;8.30;3.30;;;;;;;;;;4971228;28;20118;-75
2022/05/23 06:31:15;;;;;;;4.55;3.13;;;;;;;;;;4971373;28;20428;-78
2022/05/23 06:33:41;;;;;;;5.72;3.20;;;;;;;;;;4971754;28;20430;-75
2022/05/23 06:36:08;;;;;;;9.70;3.60;;;;;;;;;;4971030;28;20406;-78
2022/05/23 06:38:36;;;;;;;5.63;3.15;;;;;;;;;;4971382;28;20368;-78
2022/05/23 06:41:03;;;;;;;7.80;3.67;;;;;;;;;;4971283;28;20047;-73
2022/05/23 06:43:29;;;;;;;11.65;3.50;;;;;;;;;;4986921;28;20121;-76
2022/05/23 06:45:56;;;;;;;7.82;3.10;;;;;;;;;;4971290;28;20074;-76
2022/05/23 06:48:23;;;;;;;6.03;3.10;;;;;;;;;;4970657;28;20435;-75
2022/05/23 06:50:50;;;;;;;6.95;3.47;;;;;;;;;;4987331;28;20050;-73
2022/05/23 06:53:20;;;;;;;7.82;3.80;;;;;;;;;;4970461;28;20051;-77
2022/05/23 06:55:46;;;;;;;7.13;3.88;;;;;;;;;;4971113;28;20050;-75
2022/05/23 06:58:12;;;;;;;6.50;3.20;;;;;;;;;;4970593;28;20126;-72
2022/05/23 07:00:39;;;;;;;8.38;3.70;;;;;;;;;;4970628;28;20161;-74
2022/05/23 07:03:05;;;;;;;8.63;3.67;;;;;;;;;;4971460;28;20052;-73
2022/05/23 07:13:46;;;;;;;6.00;3.55;;;;;;;;;;4971896;28;20519;-73
2022/05/23 07:16:14;;;;;;;7.38;3.63;;;;;;;;;;4986660;28;20042;-74
2022/05/23 07:18:40;;;;;;;6.53;3.60;;;;;;;;;;4986649;28;20054;-77
2022/05/23 07:21:07;;;;;;;5.93;3.40;;;;;;;;;;4986686;28;20141;-72
2022/05/23 07:23:37;;;;;;;7.38;3.70;;;;;;;;;;4986629;28;20051;-74
2022/05/23 07:26:04;;;;;;;7.40;3.53;;;;;;;;;;4986551;28;20046;-74
2022/05/23 07:28:30;;;;;;;6.43;4.03;;;;;;;;;;4953896;28;20130;-73
2022/05/23 07:30:56;;;;;;;6.90;3.70;;;;;;;;;;4986813;28;20043;-73
2022/05/23 07:33:22;;;;;;;6.30;3.70;;;;;;;;;;4985885;28;20046;-76
2022/05/23 07:35:55;;;;;;;8.30;4.20;;;;;;;;;;4986761;28;20394;-75
2022/05/23 07:38:21;;;;;;;6.78;3.80;;;;;;;;;;4986254;28;20513;-75
2022/05/23 07:40:51;;;;;;;8.15;3.88;;;;;;;;;;4971221;28;20046;-74
2022/05/23 07:43:17;;;;;;;8.30;4.10;;;;;;;;;;4953248;28;20062;-72
2022/05/23 07:45:44;;;;;;;9.52;3.92;;;;;;;;;;4985958;28;20078;-75
2022/05/23 07:48:10;;;;;;;6.70;3.60;;;;;;;;;;4985560;28;20054;-76
2022/05/23 07:50:37;;;;;;;6.95;3.75;;;;;;;;;;4953626;28;20077;-74
2022/05/23 08:01:18;;;;;;;7.35;3.75;;;;;;;;;;4969644;28;20051;-74
2022/05/23 08:03:46;;;;;;;6.97;3.95;;;;;;;;;;4985423;28;20043;-73
2022/05/23 08:06:12;;;;;;;6.90;3.83;;;;;;;;;;4969207;28;20510;-73
2022/05/23 08:08:38;;;;;;;7.18;3.90;;;;;;;;;;4969210;28;20106;-73
2022/05/23 08:11:13;;;;;;;6.80;3.60;;;;;;;;;;4969743;28;20051;-72
2022/05/23 08:13:40;;;;;;;7.55;3.65;;;;;;;;;;4969214;28;20047;-75
2022/05/23 08:16:06;;;;;;;7.03;3.88;;;;;;;;;;4969449;28;20054;-78
2022/05/23 08:18:33;;;;;;;8.68;3.70;;;;;;;;;;4969387;28;20097;-77
2022/05/23 08:20:59;;;;;;;6.45;3.60;;;;;;;;;;4986184;28;20693;-76
2022/05/23 08:23:25;;;;;;;6.53;3.30;;;;;;;;;;4970374;28;20049;-76
2022/05/23 08:25:51;;;;;;;7.63;3.50;;;;;;;;;;4969284;28;20045;-73
2022/05/23 08:28:17;;;;;;;6.20;3.20;;;;;;;;;;4970285;28;20598;-73
2022/05/23 08:30:43;;;;;;;8.90;3.60;;;;;;;;;;4969264;28;20042;-73
2022/05/23 08:33:11;;;;;;;6.93;4.10;;;;;;;;;;4970476;28;20509;-73
2022/05/23 08:35:37;;;;;;;7.90;3.88;;;;;;;;;;4969741;28;20131;-75
2022/05/23 08:38:04;;;;;;;6.82;3.65;;;;;;;;;;4969695;28;20055;-75
2022/05/23 08:40:53;;;;;;;9.10;3.70;;;;;;;;;;4985948;28;20042;-73
2022/05/23 08:43:43;;;;;;;6.05;3.78;;;;;;;;;;4970704;28;20550;-74
2022/05/23 08:46:12;;;;;;;8.07;3.83;;;;;;;;;;4961535;28;20410;-76
2022/05/23 08:48:38;;;;;;;6.32;3.72;;;;;;;;;;4969352;28;20038;-73
2022/05/23 08:51:15;;;;;;;6.47;3.60;;;;;;;;;;4969778;28;20125;-73
2022/05/23 08:53:44;;;;;;;9.88;3.40;;;;;;;;;;4985633;28;20039;-76
2022/05/23 08:56:19;;;;;;;7.60;3.80;;;;;;;;;;4989536;28;20439;-76
2022/05/23 08:58:45;;;;;;;;;;;;;;;;;;4973288;28;20047;-73
2022/05/23 09:01:13;;;;;;;8.38;4.15;;;;;;;;;;4988712;28;20294;-74
2022/05/23 09:03:41;;;;;;;9.85;3.78;;;;;;;;;;4973124;28;20045;-74
2022/05/23 09:06:12;;;;;;;9.10;4.13;;;;;;;;;;4973842;28;20058;-76
2022/05/23 09:08:50;;;;;;;6.78;3.60;;;;;;;;;;4989050;28;20059;-77
2022/05/23 09:11:21;;;;;;;8.30;4.00;;;;;;;;;;4972286;28;20091;-74
2022/05/23 09:13:47;;;;;;;6.70;4.30;;;;;;;;;;4988999;28;20126;-73
2022/05/23 09:16:14;;;;;;;9.50;4.25;;;;;;;;;;4988865;28;20038;-74
2022/05/23 09:18:48;;;;;;;8.75;4.20;;;;;;;;;;4973113;28;20047;-75
2022/05/23 09:21:14;;;;;;;6.82;4.07;;;;;;;;;;4988594;28;20043;-76
2022/05/23 09:23:51;;;;;;;7.18;4.20;;;;;;;;;;4989254;28;20124;-76
2022/05/23 09:26:38;;;;;;;6.45;4.40;;;;;;;;;;4973836;28;20042;-76
2022/05/23 09:29:08;;;;;;;8.55;3.97;;;;;;;;;;4973051;28;20070;-77
2022/05/23 09:31:41;;;;;;;7.63;4.47;;;;;;;;;;4973535;28;20521;-76
2022/05/23 09:34:26;;;;;;;6.03;4.10;;;;;;;;;;4956732;28;20167;-76
2022/05/23 09:36:52;;;;;;;6.55;3.88;;;;;;;;;;4989017;28;20078;-77
2022/05/23 09:39:23;;;;;;;5.50;3.58;;;;;;;;;;4988835;28;20049;-76
2022/05/23 09:47:55;;;;;;;6.80;4.38;;;;;;;;;;4972784;28;20046;-75
2022/05/23 09:50:27;;;;;;;6.38;4.03;;;;;;;;;;4988091;28;20054;-76
2022/05/23 09:52:56;;;;;;;5.82;4.00;;;;;;;;;;4988606;28;20046;-72
2022/05/23 09:55:43;;;;;;;6.55;4.22;;;;;;;;;;4988289;28;20054;-73
2022/05/23 09:58:11;;;;;;;9.00;4.47;;;;;;;;;;4971831;28;20054;-73
2022/05/23 10:00:54;;;;;;;7.70;4.13;;;;;;;;;;4988916;28;20430;-74
2022/05/23 10:03:23;;;;;;;6.63;4.10;;;;;;;;;;4956038;28;20122;-76
2022/05/23 10:06:01;;;;;;;9.07;4.38;;;;;;;;;;4971178;28;20055;-74
2022/05/23 10:08:32;;;;;;;6.43;4.10;;;;;;;;;;4972159;28;20061;-76
2022/05/23 10:11:02;;;;;;;5.32;3.70;;;;;;;;;;4972338;28;20047;-78
2022/05/23 10:13:30;;;;;;;8.02;4.35;;;;;;;;;;4972216;28;20434;-73
2022/05/23 10:15:58;;;;;;;5.93;3.95;;;;;;;;;;4972026;28;20074;-74
2022/05/23 10:18:24;;;;;;;8.27;4.10;;;;;;;;;;4987807;28;20057;-76
2022/05/23 10:20:51;;;;;;;6.72;3.72;;;;;;;;;;4972225;28;20043;-79
2022/05/23 10:23:22;;;;;;;7.03;3.80;;;;;;;;;;4971792;28;20051;-74
2022/05/23 10:25:54;;;;;;;5.80;4.07;;;;;;;;;;4973135;28;20047;-74
2022/05/23 10:28:26;;;;;;;5.80;3.70;;;;;;;;;;4971556;28;20046;-77
2022/05/23 10:30:57;;;;;;;7.55;3.80;;;;;;;;;;4988173;28;20043;-74
2022/05/23 10:33:27;;;;;;;8.85;3.70;;;;;;;;;;4971541;28;20046;-77
2022/05/23 10:36:15;;;;;;;7.57;3.40;;;;;;;;;;4987733;28;20066;-73
2022/05/23 10:44:19;;;;;;;6.07;2.70;;;;;;;;;;4971024;28;20042;-76
2022/05/23 10:46:46;;;;;;;;;;;;;;;;;;4987586;28;20035;-75
2022/05/23 10:49:12;;;;;;;9.02;3.20;;;;;;;;;;4975624;28;19926;-75
2022/05/23 10:51:44;;;;;;;3.95;2.53;;;;;;;;;;4982862;28;20047;-76
2022/05/23 10:54:19;;;;;;;5.22;2.42;;;;;;;;;;4973358;28;20410;-77
2022/05/23 10:56:45;;;;;;;;;;;;;;;;;;4971441;28;20042;-73
2022/05/23 10:59:22;;;;;;;6.72;2.83;;;;;;;;;;4972953;28;20449;-75
2022/05/23 11:01:49;;;;;;;5.18;2.50;;;;;;;;;;4980408;28;20117;-74
2022/05/23 11:04:41;;;;;;;6.40;2.47;;;;;;;;;;4976356;28;20039;-77
2022/05/23 11:07:29;;;;;;;5.60;2.60;;;;;;;;;;4980257;28;20132;-75
2022/05/23 11:10:14;;;;;;;5.68;2.60;;;;;;;;;;4988122;28;20046;-74
2022/05/23 11:12:40;;;;;;;;;;;;;;;;;;4978559;28;20047;-78
2022/05/23 11:15:25;;;;;;;5.57;2.40;;;;;;;;;;4987729;28;19918;-77
2022/05/23 11:17:59;;;;;;;3.88;1.75;;;;;;;;;;4970142;28;20046;-77
2022/05/23 11:20:36;;;;;;;4.13;1.80;;;;;;;;;;5002835;28;20042;-78
2022/05/23 11:23:07;;;;;;;3.97;2.10;;;;;;;;;;4972112;28;20086;-78
2022/05/23 11:25:38;;;;;;;4.25;1.95;;;;;;;;;;4971089;28;20042;-81
2022/05/23 11:33:49;;;;;;;4.75;1.92;;;;;;;;;;4971159;28;20078;-76
2022/05/23 11:36:24;;;;;;;5.30;2.13;;;;;;;;;;4970552;28;20097;-80
2022/05/23 11:38:51;;;;;;;8.63;2.40;;;;;;;;;;4972082;28;20486;-78
2022/05/23 11:41:28;;;;;;;3.58;2.10;;;;;;;;;;4971237;28;20066;-75
2022/05/23 11:43:54;;;;;;;4.80;2.08;;;;;;;;;;4972045;28;20062;-79
2022/05/23 11:46:26;;;;;;;4.32;1.90;;;;;;;;;;4969964;28;20043;-77
2022/05/23 11:48:58;;;;;;;5.15;2.35;;;;;;;;;;4976680;28;20482;-77
2022/05/23 11:51:24;;;;;;;5.03;2.28;;;;;;;;;;4989826;28;20038;-74
2022/05/23 11:53:59;;;;;;;4.03;2.17;;;;;;;;;;4989448;28;20042;-73
2022/05/23 11:56:31;;;;;;;4.43;2.13;;;;;;;;;;4989554;28;20038;-79
2022/05/23 11:58:58;;;;;;;5.30;2.03;;;;;;;;;;4976212;28;20039;-78
2022/05/23 12:01:26;;;;;;;4.03;2.10;;;;;;;;;;4987189;28;20097;-74
2022/05/23 12:03:56;;;;;;;4.78;2.22;;;;;;;;;;4980801;28;20061;-74
2022/05/23 12:06:25;;;;;;;4.65;2.15;;;;;;;;;;4983855;28;20069;-76
2022/05/23 12:09:11;;;;;;;3.67;2.08;;;;;;;;;;4958181;28;20038;-76
2022/05/23 12:11:42;;;;;;;3.50;2.28;;;;;;;;;;4988389;28;20528;-76
2022/05/23 12:14:43;;;;;;;4.75;2.40;;;;;;;;;;4987758;28;20042;-75
2022/05/23 12:17:12;;;;;;;5.97;2.50;;;;;;;;;;4987782;28;20053;-77
2022/05/23 12:19:41;;;;;;;5.25;2.40;;;;;;;;;;4979557;28;20113;-76
2022/05/23 12:22:26;;;;;;;4.75;2.45;;;;;;;;;;4986121;28;20057;-75
2022/05/23 12:25:18;;;;;;;7.55;2.50;;;;;;;;;;4969689;28;20046;-75
2022/05/23 12:27:44;;;;;;;5.38;2.42;;;;;;;;;;4969593;28;20050;-75
2022/05/23 12:30:22;;;;;;;5.78;2.60;;;;;;;;;;4971348;28;20046;-75
2022/05/23 12:33:01;;;;;;;4.28;2.60;;;;;;;;;;4971090;28;20118;-76
2022/05/23 12:35:30;;;;;;;6.95;2.83;;;;;;;;;;4969427;28;20047;-76
2022/05/23 12:38:14;;;;;;;5.47;3.50;;;;;;;;;;4969980;28;20138;-76
2022/05/23 12:40:47;;;;;;;6.03;3.13;;;;;;;;;;4972371;28;20459;-76
2022/05/23 12:43:36;;;;;;;6.75;3.25;;;;;;;;;;4969137;28;20085;-77
2022/05/23 12:46:05;;;;;;;7.25;3.80;;;;;;;;;;4969124;28;20047;-77
2022/05/23 12:48:43;;;;;;;5.80;3.50;;;;;;;;;;4968861;28;20038;-77
2022/05/23 12:51:28;;;;;;;5.20;3.38;;;;;;;;;;4977953;28;20058;-76
2022/05/23 12:54:13;;;;;;;5.13;3.70;;;;;;;;;;4988554;28;20057;-76
2022/05/23 12:56:39;;;;;;;8.63;4.25;;;;;;;;;;4988596;28;20474;-76
2022/05/23 12:59:08;;;;;;;7.60;3.58;;;;;;;;;;4989043;28;20366;-76
2022/05/23 13:01:37;;;;;;;6.60;3.80;;;;;;;;;;4980293;28;20039;-77
2022/05/23 13:04:21;;;;;;;12.57;3.70;;;;;;;;;;4969180;28;20051;-76
2022/05/23 13:07:00;;;;;;;7.63;4.00;;;;;;;;;;4985124;28;20055;-76
2022/05/23 13:09:35;;;;;;;6.63;3.92;;;;;;;;;;4985317;28;20051;-77
2022/05/23 13:12:05;;;;;;;8.50;4.63;;;;;;;;;;4957093;28;20038;-77
2022/05/23 13:14:50;;;;;;;4.90;4.07;;;;;;;;;;4985151;28;20057;-77
2022/05/23 13:17:28;;;;;;;7.63;4.32;;;;;;;;;;4985365;28;20077;-76
2022/05/23 13:22:38;;;;;;;8.05;4.28;;;;;;;;;;4971261;28;20043;-76
2022/05/23 13:25:05;;;;;;;8.23;5.10;;;;;;;;;;4953109;28;20043;-77
2022/05/23 13:27:33;;;;;;;8.18;4.95;;;;;;;;;;4984519;28;20451;-76
2022/05/23 13:30:23;;;;;;;9.35;4.78;;;;;;;;;;4969570;28;20046;-76
2022/05/23 13:33:08;;;;;;;7.25;4.45;;;;;;;;;;4939246;28;20071;-77
2022/05/23 13:35:35;;;;;;;6.97;4.60;;;;;;;;;;4969508;28;20519;-76
2022/05/23 13:38:13;;;;;;;8.88;4.90;;;;;;;;;;4996566;28;20057;-76
2022/05/23 13:40:43;;;;;;;6.00;4.80;;;;;;;;;;4971129;28;20695;-74
2022/05/23 13:43:13;;;;;;;7.03;4.90;;;;;;;;;;4969263;28;20118;-74
2022/05/23 13:45:42;;;;;;;8.25;5.70;;;;;;;;;;4969150;28;20319;-74
2022/05/23 13:48:11;;;;;;;10.50;5.30;;;;;;;;;;4988179;28;20529;-74
2022/05/23 13:50:42;;;;;;;9.57;5.40;;;;;;;;;;4988605;28;20068;-74
2022/05/23 13:53:21;;;;;;;7.82;5.20;;;;;;;;;;4993105;28;20046;-74
2022/05/23 13:55:48;;;;;;;7.00;5.10;;;;;;;;;;4982813;28;20054;-78
2022/05/23 13:58:17;;;;;;;6.22;4.20;;;;;;;;;;4972994;28;20042;-78
2022/05/23 14:00:49;;;;;;;8.57;5.03;;;;;;;;;;4972830;28;20042;-72
2022/05/23 14:03:18;;;;;;;8.00;5.32;;;;;;;;;;4973282;28;20050;-77
2022/05/23 14:05:48;;;;;;;8.32;5.75;;;;;;;;;;4998695;28;20060;-76
2022/05/23 14:08:21;;;;;;;6.25;4.97;;;;;;;;;;4992486;28;20517;-77
2022/05/23 14:10:48;;;;;;;7.38;5.13;;;;;;;;;;4992933;28;20049;-76
2022/05/23 14:13:15;;;;;;;7.45;5.22;;;;;;;;;;4981284;28;20035;-77
2022/05/23 14:15:45;;;;;;;9.80;5.55;;;;;;;;;;5004972;28;20047;-76
2022/05/23 14:18:13;;;;;;;6.85;4.93;;;;;;;;;;4991391;28;20097;-77
2022/05/23 14:20:43;;;;;;;11.13;4.80;;;;;;;;;;4974640;28;20102;-76
2022/05/23 14:23:12;;;;;;;7.20;4.60;;;;;;;;;;4978590;28;20498;-77
2022/05/23 14:25:38;;;;;;;7.75;4.65;;;;;;;;;;4993132;28;20057;-77
2022/05/23 14:28:13;;;;;;;8.48;4.72;;;;;;;;;;4997436;28;20384;-78
2022/05/23 14:30:41;;;;;;;8.18;4.90;;;;;;;;;;4989639;28;20074;-76
2022/05/23 14:33:17;;;;;;;6.82;4.88;;;;;;;;;;4974062;28;20038;-76
2022/05/23 14:35:55;;;;;;;9.55;4.85;;;;;;;;;;4970745;28;20050;-77
2022/05/23 14:38:24;;;;;;;7.43;4.80;;;;;;;;;;4970304;28;20518;-77
2022/05/23 14:40:50;;;;;;;8.02;5.07;;;;;;;;;;5003858;28;20125;-77
2022/05/23 14:43:26;;;;;;;9.13;5.65;;;;;;;;;;4986057;28;20126;-77
2022/05/23 14:45:54;;;;;;;9.77;5.35;;;;;;;;;;5007274;28;20038;-77
2022/05/23 14:48:23;;;;;;;7.07;4.90;;;;;;;;;;4972791;28;20046;-78
2022/05/23 14:50:58;;;;;;;6.80;4.68;;;;;;;;;;4986779;28;20061;-78
2022/05/23 14:56:33;;;;;;;7.93;4.45;;;;;;;;;;4993506;28;20289;-78
2022/05/23 15:01:46;;;;;;;5.97;4.72;;;;;;;;;;4990678;28;20042;-75
2022/05/23 15:04:26;;;;;;;8.23;4.82;;;;;;;;;;4982381;28;20045;-76
2022/05/23 15:06:56;;;;;;;7.72;5.43;;;;;;;;;;4990576;28;20061;-75
2022/05/23 15:09:23;;;;;;;8.43;5.13;;;;;;;;;;4973702;28;20043;-75
2022/05/23 15:11:49;;;;;;;12.07;5.90;;;;;;;;;;4975150;28;20114;-75
2022/05/23 15:14:16;;;;;;;8.18;5.75;;;;;;;;;;4989534;28;20085;-76
2022/05/23 15:16:43;;;;;;;10.35;5.90;;;;;;;;;;4989336;28;20051;-76
2022/05/23 15:19:09;;;;;;;8.43;6.72;;;;;;;;;;4974948;28;20379;-76
2022/05/23 15:21:36;;;;;;;11.48;7.43;;;;;;;;;;4991947;28;20035;-76
2022/05/23 15:24:02;;;;;;;10.10;7.82;;;;;;;;;;4956559;28;20042;-77
2022/05/23 15:26:31;;;;;;;11.38;8.38;;;;;;;;;;4955854;28;20043;-76
2022/05/23 15:28:57;;;;;;;10.88;8.20;;;;;;;;;;4972867;28;20059;-74
2022/05/23 15:31:25;;;;;;;11.48;8.63;;;;;;;;;;4974013;28;20038;-76
2022/05/23 15:33:51;;;;;;;10.63;9.52;;;;;;;;;;5000378;28;20062;-77
2022/05/23 15:36:18;;;;;;;14.98;10.38;;;;;;;;;;4996020;28;20082;-78
2022/05/23 15:38:45;;;;;;;13.38;10.32;;;;;;;;;;4981171;28;20043;-77
2022/05/23 15:41:11;;;;;;;14.85;10.50;;;;;;;;;;4972876;28;20069;-77
2022/05/23 15:43:37;;;;;;;15.38;11.73;;;;;;;;;;4971537;28;20074;-76
2022/05/23 15:46:07;;;;;;;17.85;13.00;;;;;;;;;;4970535;28;20074;-75
2022/05/23 15:48:33;;;;;;;15.20;12.48;;;;;;;;;;4971472;28;20042;-75
2022/05/23 15:51:00;;;;;;;19.50;14.18;;;;;;;;;;4954684;28;20042;-75
2022/05/23 15:53:27;;;;;;;21.08;15.18;;;;;;;;;;5002290;28;20296;-75
2022/05/23 15:55:53;;;;;;;23.88;15.10;;;;;;;;;;4953975;28;20085;-75
2022/05/23 15:58:20;;;;;;;17.90;14.70;;;;;;;;;;5001951;28;20054;-75
2022/05/23 16:00:46;;;;;;;24.90;18.27;;;;;;;;;;5004515;28;20046;-75
2022/05/23 16:03:13;;;;;;;26.63;20.20;;;;;;;;;;4957889;28;20113;-74